ANZ519 NZAA-NZCH
Flight info
| Callsign | ANZ519 |
|---|---|
| Flight time | 1h 14m |
| Altitude | 36000 |
| Route | IGBAT H384 NP H252 NS Y288 IPRAK |
| Aircraft | A320/M-SDE3FGHIRWY/LB1 |
Departure
| Time | 2026-05-07 15:57 |
|---|---|
| Airport | Auckland International Airport (NZAA) |
Arrival
| Time | 2026-05-07 17:11 |
|---|---|
| Airport | Christchurch International Airport (NZCH) |
| Time | Latitude | Longitude | Altitude | Speed | Heading |
|---|---|---|---|---|---|
| 2026-05-07 15:27 | -37.00681 | 174.79182 | 26 ft | 0 kts | 313° |
| 2026-05-07 15:45 | -37.00685 | 174.79189 | 25 ft | 4 kts | 318° |
| 2026-05-07 15:45 | -37.00708 | 174.79203 | 28 ft | 4 kts | 341° |
| 2026-05-07 15:45 | -37.00728 | 174.79211 | 26 ft | 4 kts | 344° |
| 2026-05-07 15:45 | -37.00752 | 174.79221 | 26 ft | 4 kts | 313° |
| 2026-05-07 15:46 | -37.00757 | 174.79228 | 27 ft | 0 kts | 251° |
| 2026-05-07 15:50 | -37.00759 | 174.79220 | 29 ft | 3 kts | 251° |
| 2026-05-07 15:50 | -37.00773 | 174.79170 | 25 ft | 9 kts | 251° |
| 2026-05-07 15:50 | -37.00810 | 174.79104 | 28 ft | 10 kts | 198° |
| 2026-05-07 15:50 | -37.00880 | 174.79094 | 29 ft | 11 kts | 229° |
| 2026-05-07 15:51 | -37.00910 | 174.78993 | 29 ft | 13 kts | 251° |
| 2026-05-07 15:51 | -37.00943 | 174.78874 | 25 ft | 16 kts | 251° |
| 2026-05-07 15:51 | -37.00981 | 174.78736 | 27 ft | 18 kts | 251° |
| 2026-05-07 15:51 | -37.01024 | 174.78581 | 30 ft | 20 kts | 251° |
| 2026-05-07 15:52 | -37.01072 | 174.78409 | 27 ft | 22 kts | 251° |
| 2026-05-07 15:52 | -37.01124 | 174.78217 | 28 ft | 24 kts | 251° |
| 2026-05-07 15:52 | -37.01182 | 174.78006 | 30 ft | 27 kts | 251° |
| 2026-05-07 15:52 | -37.01245 | 174.77778 | 27 ft | 26 kts | 251° |
| 2026-05-07 15:53 | -37.01279 | 174.77659 | 29 ft | 13 kts | 250° |
| 2026-05-07 15:53 | -37.01308 | 174.77556 | 26 ft | 13 kts | 251° |
| 2026-05-07 15:53 | -37.01341 | 174.77437 | 28 ft | 15 kts | 251° |
| 2026-05-07 15:53 | -37.01378 | 174.77301 | 26 ft | 18 kts | 251° |
| 2026-05-07 15:54 | -37.01416 | 174.77162 | 28 ft | 10 kts | 251° |
| 2026-05-07 15:54 | -37.01468 | 174.77106 | 27 ft | 12 kts | 189° |
| 2026-05-07 15:54 | -37.01500 | 174.77098 | 28 ft | 0 kts | 190° |
| 2026-05-07 15:55 | -37.01501 | 174.77098 | 28 ft | 1 kts | 190° |
| 2026-05-07 15:55 | -37.01515 | 174.77095 | 28 ft | 3 kts | 190° |
| 2026-05-07 15:55 | -37.01555 | 174.77086 | 27 ft | 8 kts | 191° |
| 2026-05-07 15:55 | -37.01620 | 174.77091 | 27 ft | 8 kts | 152° |
| 2026-05-07 15:56 | -37.01618 | 174.77131 | 26 ft | 0 kts | 72° |
| 2026-05-07 15:56 | -37.01617 | 174.77134 | 26 ft | 2 kts | 72° |
| 2026-05-07 15:57 | -37.01570 | 174.77303 | 28 ft | 53 kts | 70° |
| 2026-05-07 15:57 | -37.01377 | 174.78001 | 27 ft | 114 kts | 71° |
| 2026-05-07 15:57 | -37.01064 | 174.79133 | 43 ft | 158 kts | 68° |
| 2026-05-07 15:57 | -37.00713 | 174.80423 | 627 ft | 157 kts | 72° |
| 2026-05-07 15:58 | -37.00820 | 174.81793 | 1167 ft | 170 kts | 118° |
| 2026-05-07 15:58 | -37.01779 | 174.82708 | 1735 ft | 186 kts | 162° |
| 2026-05-07 15:58 | -37.03132 | 174.82777 | 2038 ft | 205 kts | 185° |
| 2026-05-07 15:58 | -37.04616 | 174.82593 | 2357 ft | 224 kts | 187° |
| 2026-05-07 15:59 | -37.06244 | 174.82347 | 2748 ft | 242 kts | 187° |
| 2026-05-07 15:59 | -37.07914 | 174.82106 | 3560 ft | 242 kts | 187° |
| 2026-05-07 15:59 | -37.09617 | 174.81883 | 3911 ft | 246 kts | 186° |
| 2026-05-07 15:59 | -37.11319 | 174.81677 | 3994 ft | 245 kts | 186° |
| 2026-05-07 16:00 | -37.13011 | 174.81480 | 4005 ft | 244 kts | 186° |
| 2026-05-07 16:00 | -37.14674 | 174.81051 | 4028 ft | 250 kts | 200° |
| 2026-05-07 16:00 | -37.16390 | 174.80350 | 4365 ft | 274 kts | 200° |
| 2026-05-07 16:00 | -37.18248 | 174.79596 | 5112 ft | 284 kts | 200° |
| 2026-05-07 16:01 | -37.20138 | 174.78834 | 6048 ft | 286 kts | 200° |
| 2026-05-07 16:01 | -37.22040 | 174.78071 | 6973 ft | 287 kts | 200° |
| 2026-05-07 16:01 | -37.23956 | 174.77300 | 7809 ft | 291 kts | 200° |
| 2026-05-07 16:01 | -37.25895 | 174.76518 | 8634 ft | 295 kts | 200° |
| 2026-05-07 16:02 | -37.27866 | 174.75723 | 9437 ft | 300 kts | 200° |
| 2026-05-07 16:02 | -37.29866 | 174.74915 | 10200 ft | 305 kts | 200° |
| 2026-05-07 16:02 | -37.31942 | 174.74075 | 10559 ft | 325 kts | 200° |
| 2026-05-07 16:02 | -37.34168 | 174.73169 | 10780 ft | 346 kts | 200° |
| 2026-05-07 16:03 | -37.36496 | 174.72225 | 11307 ft | 355 kts | 200° |
| 2026-05-07 16:03 | -37.38866 | 174.71266 | 11979 ft | 360 kts | 200° |
| 2026-05-07 16:03 | -37.41262 | 174.70300 | 12661 ft | 364 kts | 200° |
| 2026-05-07 16:03 | -37.43695 | 174.69319 | 13345 ft | 368 kts | 200° |
| 2026-05-07 16:04 | -37.46119 | 174.68343 | 13999 ft | 372 kts | 200° |
| 2026-05-07 16:04 | -37.48601 | 174.67345 | 14594 ft | 376 kts | 201° |
| 2026-05-07 16:04 | -37.51109 | 174.66333 | 15202 ft | 379 kts | 201° |
| 2026-05-07 16:04 | -37.53631 | 174.65311 | 15810 ft | 382 kts | 201° |
| 2026-05-07 16:05 | -37.56174 | 174.64279 | 16414 ft | 385 kts | 201° |
| 2026-05-07 16:05 | -37.58744 | 174.63287 | 17021 ft | 388 kts | 199° |
| 2026-05-07 16:05 | -37.61368 | 174.62405 | 17638 ft | 392 kts | 197° |
| 2026-05-07 16:05 | -37.64034 | 174.61589 | 18240 ft | 396 kts | 197° |
| 2026-05-07 16:06 | -37.66731 | 174.60799 | 18801 ft | 399 kts | 197° |
| 2026-05-07 16:06 | -37.69451 | 174.60004 | 19362 ft | 402 kts | 197° |
| 2026-05-07 16:06 | -37.72145 | 174.59201 | 19920 ft | 404 kts | 197° |
| 2026-05-07 16:06 | -37.74890 | 174.58363 | 20494 ft | 407 kts | 197° |
| 2026-05-07 16:07 | -37.77654 | 174.57504 | 21057 ft | 410 kts | 198° |
| 2026-05-07 16:07 | -37.80424 | 174.56631 | 21598 ft | 412 kts | 198° |
| 2026-05-07 16:07 | -37.83222 | 174.55748 | 22159 ft | 415 kts | 198° |
| 2026-05-07 16:07 | -37.86034 | 174.54863 | 22676 ft | 418 kts | 198° |
| 2026-05-07 16:08 | -37.88866 | 174.53974 | 23186 ft | 421 kts | 198° |
| 2026-05-07 16:08 | -37.91719 | 174.53080 | 23688 ft | 424 kts | 198° |
| 2026-05-07 16:08 | -37.94595 | 174.52178 | 24102 ft | 427 kts | 198° |
| 2026-05-07 16:08 | -37.97486 | 174.51270 | 24492 ft | 429 kts | 198° |
| 2026-05-07 16:09 | -38.00366 | 174.50362 | 24883 ft | 432 kts | 198° |
| 2026-05-07 16:09 | -38.03298 | 174.49439 | 25259 ft | 435 kts | 198° |
| 2026-05-07 16:09 | -38.06256 | 174.48513 | 25648 ft | 438 kts | 198° |
| 2026-05-07 16:09 | -38.09225 | 174.47581 | 26006 ft | 441 kts | 198° |
| 2026-05-07 16:10 | -38.12213 | 174.46636 | 26361 ft | 444 kts | 198° |
| 2026-05-07 16:10 | -38.15233 | 174.45683 | 26722 ft | 447 kts | 198° |
| 2026-05-07 16:10 | -38.18266 | 174.44732 | 27076 ft | 450 kts | 198° |
| 2026-05-07 16:10 | -38.21314 | 174.43775 | 27428 ft | 453 kts | 198° |
| 2026-05-07 16:11 | -38.24380 | 174.42811 | 27780 ft | 455 kts | 198° |
| 2026-05-07 16:11 | -38.27460 | 174.41839 | 28122 ft | 458 kts | 198° |
| 2026-05-07 16:11 | -38.30561 | 174.40855 | 28473 ft | 461 kts | 198° |
| 2026-05-07 16:11 | -38.33687 | 174.39860 | 28821 ft | 463 kts | 198° |
| 2026-05-07 16:12 | -38.36790 | 174.38875 | 29151 ft | 466 kts | 198° |
| 2026-05-07 16:12 | -38.39941 | 174.37873 | 29489 ft | 469 kts | 198° |
| 2026-05-07 16:12 | -38.43116 | 174.36864 | 29821 ft | 471 kts | 198° |
| 2026-05-07 16:12 | -38.46308 | 174.35852 | 30135 ft | 474 kts | 198° |
| 2026-05-07 16:13 | -38.49521 | 174.34828 | 30414 ft | 476 kts | 199° |
| 2026-05-07 16:13 | -38.52740 | 174.33799 | 30769 ft | 476 kts | 198° |
| 2026-05-07 16:13 | -38.55950 | 174.32773 | 31177 ft | 475 kts | 198° |
| 2026-05-07 16:13 | -38.59160 | 174.31746 | 31576 ft | 474 kts | 198° |
| 2026-05-07 16:14 | -38.62368 | 174.30720 | 31974 ft | 474 kts | 198° |
| 2026-05-07 16:14 | -38.65565 | 174.29700 | 32374 ft | 473 kts | 198° |
| 2026-05-07 16:14 | -38.68720 | 174.28693 | 32796 ft | 473 kts | 198° |
| 2026-05-07 16:14 | -38.71907 | 174.27674 | 33225 ft | 471 kts | 199° |
| 2026-05-07 16:15 | -38.75084 | 174.26654 | 33664 ft | 470 kts | 199° |
| 2026-05-07 16:15 | -38.78268 | 174.25630 | 34097 ft | 470 kts | 199° |
| 2026-05-07 16:15 | -38.81437 | 174.24612 | 34445 ft | 470 kts | 199° |
| 2026-05-07 16:15 | -38.84610 | 174.23592 | 34795 ft | 469 kts | 199° |
| 2026-05-07 16:16 | -38.87768 | 174.22576 | 35159 ft | 467 kts | 199° |
| 2026-05-07 16:16 | -38.90919 | 174.21560 | 35508 ft | 466 kts | 199° |
| 2026-05-07 16:16 | -38.94063 | 174.20547 | 35850 ft | 464 kts | 199° |
| 2026-05-07 16:16 | -38.97197 | 174.19536 | 36042 ft | 464 kts | 199° |
| 2026-05-07 16:17 | -39.00343 | 174.18518 | 36085 ft | 467 kts | 199° |
| 2026-05-07 16:17 | -39.06581 | 174.16211 | 36081 ft | 466 kts | 203° |
| 2026-05-07 16:18 | -39.12734 | 174.13604 | 36073 ft | 465 kts | 204° |
| 2026-05-07 16:18 | -39.18837 | 174.10988 | 36068 ft | 465 kts | 203° |
| 2026-05-07 16:19 | -39.25059 | 174.08412 | 36060 ft | 468 kts | 203° |
| 2026-05-07 16:19 | -39.31237 | 174.05913 | 36044 ft | 469 kts | 202° |
| 2026-05-07 16:20 | -39.37459 | 174.03379 | 36044 ft | 469 kts | 203° |
| 2026-05-07 16:20 | -39.43680 | 174.00810 | 36060 ft | 469 kts | 203° |
| 2026-05-07 16:21 | -39.49906 | 173.98239 | 36054 ft | 470 kts | 203° |
| 2026-05-07 16:21 | -39.56143 | 173.95661 | 36046 ft | 470 kts | 203° |
| 2026-05-07 16:22 | -39.62381 | 173.93074 | 36040 ft | 470 kts | 203° |
| 2026-05-07 16:22 | -39.68571 | 173.90511 | 36062 ft | 470 kts | 203° |
| 2026-05-07 16:23 | -39.74799 | 173.87915 | 36044 ft | 470 kts | 203° |
| 2026-05-07 16:23 | -39.81020 | 173.85319 | 36033 ft | 470 kts | 203° |
| 2026-05-07 16:24 | -39.87256 | 173.82729 | 36039 ft | 470 kts | 203° |
| 2026-05-07 16:24 | -39.93483 | 173.80136 | 36023 ft | 470 kts | 203° |
| 2026-05-07 16:25 | -39.99706 | 173.77522 | 36019 ft | 470 kts | 203° |
| 2026-05-07 16:25 | -40.05937 | 173.74897 | 36004 ft | 470 kts | 203° |
| 2026-05-07 16:26 | -40.12177 | 173.72288 | 36030 ft | 471 kts | 203° |
| 2026-05-07 16:26 | -40.18381 | 173.69682 | 36016 ft | 471 kts | 203° |
| 2026-05-07 16:27 | -40.24623 | 173.67047 | 36007 ft | 471 kts | 203° |
| 2026-05-07 16:27 | -40.30865 | 173.64394 | 36008 ft | 472 kts | 203° |
| 2026-05-07 16:28 | -40.37109 | 173.61750 | 36003 ft | 472 kts | 203° |
| 2026-05-07 16:28 | -40.43357 | 173.59090 | 35992 ft | 472 kts | 204° |
| 2026-05-07 16:29 | -40.49616 | 173.56436 | 35986 ft | 472 kts | 203° |
| 2026-05-07 16:29 | -40.54809 | 173.54234 | 35986 ft | 472 kts | 204° |
| 2026-05-07 16:30 | -40.61052 | 173.51561 | 36009 ft | 472 kts | 204° |
| 2026-05-07 16:30 | -40.67295 | 173.48894 | 36000 ft | 470 kts | 204° |
| 2026-05-07 16:31 | -40.73521 | 173.46222 | 36003 ft | 470 kts | 204° |
| 2026-05-07 16:31 | -40.79746 | 173.43541 | 35974 ft | 471 kts | 204° |
| 2026-05-07 16:32 | -40.85949 | 173.40881 | 35950 ft | 472 kts | 204° |
| 2026-05-07 16:32 | -40.92202 | 173.38188 | 35952 ft | 473 kts | 204° |
| 2026-05-07 16:33 | -40.98461 | 173.35497 | 35975 ft | 473 kts | 204° |
| 2026-05-07 16:33 | -41.04726 | 173.32798 | 35972 ft | 473 kts | 204° |
| 2026-05-07 16:34 | -41.10977 | 173.30084 | 35960 ft | 473 kts | 204° |
| 2026-05-07 16:34 | -41.17238 | 173.27361 | 35970 ft | 473 kts | 204° |
| 2026-05-07 16:35 | -41.23498 | 173.24637 | 35961 ft | 473 kts | 204° |
| 2026-05-07 16:35 | -41.29761 | 173.21907 | 35958 ft | 473 kts | 204° |
| 2026-05-07 16:36 | -41.36030 | 173.19328 | 35952 ft | 475 kts | 202° |
| 2026-05-07 16:36 | -41.42405 | 173.16947 | 35954 ft | 476 kts | 201° |
| 2026-05-07 16:37 | -41.48778 | 173.14580 | 35947 ft | 475 kts | 201° |
| 2026-05-07 16:37 | -41.55123 | 173.12154 | 35938 ft | 474 kts | 202° |
| 2026-05-07 16:38 | -41.61452 | 173.09695 | 35949 ft | 474 kts | 202° |
| 2026-05-07 16:38 | -41.67783 | 173.07240 | 35938 ft | 473 kts | 202° |
| 2026-05-07 16:39 | -41.74112 | 173.04792 | 35725 ft | 473 kts | 202° |
| 2026-05-07 16:39 | -41.77279 | 173.03566 | 35024 ft | 476 kts | 202° |
| 2026-05-07 16:39 | -41.80479 | 173.02322 | 34195 ft | 481 kts | 202° |
| 2026-05-07 16:39 | -41.83665 | 173.01082 | 33210 ft | 486 kts | 202° |
| 2026-05-07 16:40 | -41.86911 | 172.99824 | 32645 ft | 482 kts | 202° |
| 2026-05-07 16:40 | -41.90118 | 172.98588 | 32076 ft | 478 kts | 201° |
| 2026-05-07 16:40 | -41.93306 | 172.97353 | 31499 ft | 474 kts | 201° |
| 2026-05-07 16:40 | -41.96456 | 172.96126 | 30931 ft | 470 kts | 201° |
| 2026-05-07 16:41 | -41.99598 | 172.94895 | 30340 ft | 468 kts | 201° |
| 2026-05-07 16:41 | -42.02718 | 172.93671 | 29742 ft | 465 kts | 201° |
| 2026-05-07 16:41 | -42.05812 | 172.92459 | 29157 ft | 461 kts | 201° |
| 2026-05-07 16:41 | -42.08870 | 172.91258 | 28580 ft | 456 kts | 201° |
| 2026-05-07 16:42 | -42.11900 | 172.90065 | 28038 ft | 452 kts | 201° |
| 2026-05-07 16:42 | -42.14903 | 172.88884 | 27480 ft | 448 kts | 201° |
| 2026-05-07 16:42 | -42.17848 | 172.87727 | 26951 ft | 444 kts | 201° |
| 2026-05-07 16:42 | -42.20798 | 172.86568 | 26446 ft | 440 kts | 201° |
| 2026-05-07 16:43 | -42.23731 | 172.85413 | 25930 ft | 437 kts | 201° |
| 2026-05-07 16:43 | -42.26638 | 172.84262 | 25448 ft | 434 kts | 201° |
| 2026-05-07 16:43 | -42.29522 | 172.83122 | 24970 ft | 431 kts | 201° |
| 2026-05-07 16:43 | -42.32398 | 172.81992 | 24481 ft | 429 kts | 201° |
| 2026-05-07 16:44 | -42.35260 | 172.80863 | 24009 ft | 428 kts | 201° |
| 2026-05-07 16:44 | -42.38117 | 172.79730 | 23527 ft | 427 kts | 201° |
| 2026-05-07 16:44 | -42.40965 | 172.78599 | 22985 ft | 426 kts | 201° |
| 2026-05-07 16:44 | -42.43808 | 172.77469 | 22487 ft | 424 kts | 201° |
| 2026-05-07 16:45 | -42.46639 | 172.76343 | 21990 ft | 422 kts | 201° |
| 2026-05-07 16:45 | -42.49457 | 172.75221 | 21468 ft | 422 kts | 201° |
| 2026-05-07 16:45 | -42.52271 | 172.74103 | 20952 ft | 420 kts | 201° |
| 2026-05-07 16:45 | -42.55079 | 172.72990 | 20414 ft | 419 kts | 201° |
| 2026-05-07 16:46 | -42.57881 | 172.71879 | 19877 ft | 419 kts | 202° |
| 2026-05-07 16:46 | -42.60664 | 172.70773 | 19419 ft | 415 kts | 202° |
| 2026-05-07 16:46 | -42.63423 | 172.69676 | 18845 ft | 408 kts | 202° |
| 2026-05-07 16:46 | -42.66075 | 172.68623 | 18286 ft | 394 kts | 202° |
| 2026-05-07 16:47 | -42.68661 | 172.67599 | 17746 ft | 381 kts | 202° |
| 2026-05-07 16:47 | -42.71166 | 172.66602 | 17254 ft | 373 kts | 203° |
| 2026-05-07 16:47 | -42.73645 | 172.65605 | 16907 ft | 368 kts | 203° |
| 2026-05-07 16:47 | -42.76077 | 172.64624 | 16549 ft | 364 kts | 203° |
| 2026-05-07 16:48 | -42.78502 | 172.63642 | 16082 ft | 363 kts | 204° |
| 2026-05-07 16:48 | -42.80927 | 172.62658 | 15582 ft | 363 kts | 204° |
| 2026-05-07 16:48 | -42.83347 | 172.61679 | 15117 ft | 363 kts | 204° |
| 2026-05-07 16:48 | -42.85768 | 172.60699 | 14663 ft | 362 kts | 204° |
| 2026-05-07 16:49 | -42.88179 | 172.59721 | 14201 ft | 362 kts | 204° |
| 2026-05-07 16:49 | -42.90589 | 172.58741 | 13735 ft | 361 kts | 204° |
| 2026-05-07 16:49 | -42.92998 | 172.57759 | 13249 ft | 360 kts | 204° |
| 2026-05-07 16:49 | -42.95395 | 172.56785 | 12778 ft | 358 kts | 204° |
| 2026-05-07 16:50 | -42.97774 | 172.55818 | 12326 ft | 356 kts | 204° |
| 2026-05-07 16:50 | -43.00146 | 172.54852 | 11877 ft | 354 kts | 204° |
| 2026-05-07 16:50 | -43.02499 | 172.53892 | 11424 ft | 353 kts | 204° |
| 2026-05-07 16:50 | -43.04849 | 172.52932 | 10971 ft | 350 kts | 204° |
| 2026-05-07 16:51 | -43.07176 | 172.51980 | 10526 ft | 349 kts | 203° |
| 2026-05-07 16:51 | -43.09494 | 172.51032 | 10237 ft | 342 kts | 204° |
| 2026-05-07 16:51 | -43.11691 | 172.50141 | 10088 ft | 323 kts | 204° |
| 2026-05-07 16:51 | -43.13828 | 172.49280 | 9742 ft | 309 kts | 204° |
| 2026-05-07 16:52 | -43.15821 | 172.48474 | 9363 ft | 298 kts | 204° |
| 2026-05-07 16:52 | -43.17789 | 172.47667 | 8862 ft | 292 kts | 204° |
| 2026-05-07 16:52 | -43.19723 | 172.46868 | 8365 ft | 287 kts | 203° |
| 2026-05-07 16:52 | -43.21620 | 172.46085 | 7889 ft | 282 kts | 203° |
| 2026-05-07 16:53 | -43.23487 | 172.45316 | 7409 ft | 278 kts | 203° |
| 2026-05-07 16:53 | -43.25325 | 172.44557 | 6947 ft | 274 kts | 202° |
| 2026-05-07 16:53 | -43.27141 | 172.43806 | 6486 ft | 270 kts | 202° |
| 2026-05-07 16:53 | -43.28931 | 172.43065 | 6023 ft | 267 kts | 201° |
| 2026-05-07 16:54 | -43.30695 | 172.42336 | 5561 ft | 263 kts | 201° |
| 2026-05-07 16:54 | -43.32435 | 172.41621 | 5123 ft | 258 kts | 200° |
| 2026-05-07 16:54 | -43.34112 | 172.40929 | 4952 ft | 242 kts | 201° |
| 2026-05-07 16:54 | -43.35687 | 172.40279 | 4896 ft | 232 kts | 201° |
| 2026-05-07 16:55 | -43.37190 | 172.39660 | 4859 ft | 218 kts | 201° |
| 2026-05-07 16:55 | -43.38611 | 172.39076 | 4742 ft | 210 kts | 201° |
| 2026-05-07 16:55 | -43.40031 | 172.38632 | 4639 ft | 210 kts | 189° |
| 2026-05-07 16:55 | -43.41505 | 172.38624 | 4352 ft | 213 kts | 180° |
| 2026-05-07 16:56 | -43.42989 | 172.38717 | 4044 ft | 213 kts | 179° |
| 2026-05-07 16:56 | -43.44465 | 172.38810 | 3752 ft | 211 kts | 179° |
| 2026-05-07 16:56 | -43.47351 | 172.38993 | 3196 ft | 207 kts | 178° |
| 2026-05-07 16:57 | -43.48782 | 172.39082 | 2921 ft | 205 kts | 178° |
| 2026-05-07 16:57 | -43.50195 | 172.39266 | 2635 ft | 203 kts | 165° |
| 2026-05-07 16:57 | -43.51473 | 172.39978 | 2376 ft | 193 kts | 146° |
| 2026-05-07 16:57 | -43.52472 | 172.41107 | 2131 ft | 180 kts | 127° |
| 2026-05-07 16:58 | -43.53161 | 172.42494 | 1880 ft | 172 kts | 111° |
| 2026-05-07 16:58 | -43.53554 | 172.44002 | 1678 ft | 161 kts | 96° |
| 2026-05-07 16:58 | -43.53654 | 172.45472 | 1441 ft | 147 kts | 81° |
| 2026-05-07 16:58 | -43.53487 | 172.46819 | 1252 ft | 140 kts | 67° |
| 2026-05-07 16:59 | -43.53088 | 172.48023 | 1067 ft | 138 kts | 54° |
| 2026-05-07 16:59 | -43.52492 | 172.49055 | 871 ft | 138 kts | 42° |
| 2026-05-07 16:59 | -43.51758 | 172.49920 | 679 ft | 138 kts | 37° |
| 2026-05-07 16:59 | -43.51009 | 172.50764 | 512 ft | 139 kts | 40° |
| 2026-05-07 17:00 | -43.50280 | 172.51600 | 326 ft | 138 kts | 39° |
| 2026-05-07 17:00 | -43.49550 | 172.52460 | 140 ft | 138 kts | 41° |
| 2026-05-07 17:00 | -43.48862 | 172.53276 | 226 ft | 134 kts | 41° |
| 2026-05-07 17:00 | -43.48114 | 172.54162 | 850 ft | 150 kts | 40° |
| 2026-05-07 17:01 | -43.47291 | 172.55126 | 1684 ft | 160 kts | 39° |
| 2026-05-07 17:01 | -43.46384 | 172.56213 | 2141 ft | 187 kts | 43° |
| 2026-05-07 17:01 | -43.45584 | 172.57742 | 2640 ft | 204 kts | 60° |
| 2026-05-07 17:01 | -43.45057 | 172.59597 | 3363 ft | 212 kts | 68° |
| 2026-05-07 17:02 | -43.44563 | 172.61580 | 3865 ft | 232 kts | 67° |
| 2026-05-07 17:02 | -43.43851 | 172.63726 | 3984 ft | 258 kts | 49° |
| 2026-05-07 17:02 | -43.42474 | 172.65262 | 4005 ft | 256 kts | 20° |
| 2026-05-07 17:02 | -43.40750 | 172.65635 | 4010 ft | 252 kts | 351° |
| 2026-05-07 17:03 | -43.40738 | 172.65633 | 4010 ft | 252 kts | 351° |
| 2026-05-07 17:03 | -43.39923 | 172.65369 | 4007 ft | 251 kts | 338° |
| 2026-05-07 17:03 | -43.38502 | 172.64000 | 4008 ft | 254 kts | 311° |
| 2026-05-07 17:04 | -43.37745 | 172.61812 | 4008 ft | 260 kts | 282° |
| 2026-05-07 17:04 | -43.37805 | 172.59303 | 4008 ft | 266 kts | 265° |
| 2026-05-07 17:04 | -43.38058 | 172.56785 | 4010 ft | 266 kts | 265° |
| 2026-05-07 17:04 | -43.38316 | 172.54265 | 4008 ft | 266 kts | 265° |
| 2026-05-07 17:05 | -43.38572 | 172.51749 | 4007 ft | 266 kts | 265° |
| 2026-05-07 17:05 | -43.38823 | 172.49245 | 4037 ft | 259 kts | 265° |
| 2026-05-07 17:05 | -43.39065 | 172.46855 | 4035 ft | 245 kts | 266° |
| 2026-05-07 17:05 | -43.39292 | 172.44613 | 4039 ft | 229 kts | 266° |
| 2026-05-07 17:06 | -43.39505 | 172.42512 | 4034 ft | 216 kts | 264° |
| 2026-05-07 17:06 | -43.40018 | 172.40631 | 4082 ft | 210 kts | 240° |
| 2026-05-07 17:06 | -43.41072 | 172.39275 | 4041 ft | 206 kts | 213° |
| 2026-05-07 17:06 | -43.42416 | 172.38715 | 4025 ft | 208 kts | 186° |
| 2026-05-07 17:07 | -43.43889 | 172.38777 | 3876 ft | 212 kts | 179° |
| 2026-05-07 17:07 | -43.45343 | 172.38870 | 3561 ft | 212 kts | 178° |
| 2026-05-07 17:07 | -43.46812 | 172.38962 | 3276 ft | 211 kts | 178° |
| 2026-05-07 17:07 | -43.48269 | 172.39054 | 3000 ft | 209 kts | 178° |
| 2026-05-07 17:08 | -43.49715 | 172.39155 | 2705 ft | 207 kts | 173° |
| 2026-05-07 17:08 | -43.51051 | 172.39679 | 2446 ft | 191 kts | 152° |
| 2026-05-07 17:08 | -43.52122 | 172.40649 | 2194 ft | 180 kts | 134° |
| 2026-05-07 17:08 | -43.52922 | 172.41924 | 1960 ft | 173 kts | 117° |
| 2026-05-07 17:09 | -43.53433 | 172.43389 | 1763 ft | 168 kts | 102° |
| 2026-05-07 17:09 | -43.53648 | 172.44872 | 1583 ft | 147 kts | 87° |
| 2026-05-07 17:09 | -43.53596 | 172.46213 | 1353 ft | 135 kts | 73° |
| 2026-05-07 17:09 | -43.53318 | 172.47417 | 1153 ft | 130 kts | 61° |
| 2026-05-07 17:10 | -43.52850 | 172.48486 | 988 ft | 130 kts | 49° |
| 2026-05-07 17:10 | -43.52217 | 172.49389 | 762 ft | 132 kts | 40° |
| 2026-05-07 17:10 | -43.51519 | 172.50190 | 635 ft | 131 kts | 39° |
| 2026-05-07 17:10 | -43.50808 | 172.50988 | 481 ft | 131 kts | 39° |
| 2026-05-07 17:11 | -43.50104 | 172.51802 | 295 ft | 132 kts | 40° |
| 2026-05-07 17:11 | -43.49409 | 172.52621 | 142 ft | 129 kts | 40° |
| 2026-05-07 17:11 | -43.48813 | 172.53309 | 115 ft | 89 kts | 40° |
| 2026-05-07 17:11 | -43.48476 | 172.53702 | 107 ft | 41 kts | 41° |
| 2026-05-07 17:12 | -43.48261 | 172.53946 | 107 ft | 39 kts | 39° |
| 2026-05-07 17:12 | -43.48108 | 172.54126 | 110 ft | 12 kts | 51° |
| 2026-05-07 17:12 | -43.48145 | 172.54217 | 111 ft | 14 kts | 160° |
| 2026-05-07 17:12 | -43.48236 | 172.54249 | 108 ft | 14 kts | 165° |
| 2026-05-07 17:13 | -43.48319 | 172.54221 | 108 ft | 14 kts | 219° |
| 2026-05-07 17:13 | -43.48401 | 172.54130 | 108 ft | 16 kts | 219° |
| 2026-05-07 17:13 | -43.48484 | 172.54030 | 108 ft | 15 kts | 226° |
| 2026-05-07 17:13 | -43.48565 | 172.53926 | 107 ft | 17 kts | 220° |
| 2026-05-07 17:14 | -43.48660 | 172.53817 | 109 ft | 16 kts | 219° |
| 2026-05-07 17:14 | -43.48738 | 172.53727 | 107 ft | 9 kts | 220° |
| 2026-05-07 17:14 | -43.48779 | 172.53713 | 109 ft | 7 kts | 136° |
| 2026-05-07 17:14 | -43.48814 | 172.53775 | 108 ft | 8 kts | 130° |
| 2026-05-07 17:15 | -43.48833 | 172.53806 | 108 ft | 3 kts | 130° |
| 2026-05-07 17:15 | -43.48839 | 172.53817 | 108 ft | 0 kts | 130° |